RJDA(METAR)
12/04 20:00
METAR RJDA 041100Z 05004KT 010V100 9999 FEW030 BKN130 13/05 Q1022
RMK 1CU030 6AC130 A3019=
戻る
トップページへ戻る
IMOC Co,.Ltd.